sensor_id;sensor_type;location;lat;lon;timestamp;P1;durP1;ratioP1;P2;durP2;ratioP2
9958;SDS011;5019;48.012;7.812;2022-11-15T00:01:42;1.37;;;1.27;;
9958;SDS011;5019;48.012;7.812;2022-11-15T00:04:07;2.40;;;2.03;;
9958;SDS011;5019;48.012;7.812;2022-11-15T00:06:35;1.43;;;1.30;;
9958;SDS011;5019;48.012;7.812;2022-11-15T00:09:02;1.23;;;1.00;;
9958;SDS011;5019;48.012;7.812;2022-11-15T00:11:28;2.00;;;1.80;;
9958;SDS011;5019;48.012;7.812;2022-11-15T00:13:55;2.93;;;1.67;;
9958;SDS011;5019;48.012;7.812;2022-11-15T00:16:21;1.20;;;1.10;;
9958;SDS011;5019;48.012;7.812;2022-11-15T00:18:47;2.80;;;1.83;;
9958;SDS011;5019;48.012;7.812;2022-11-15T00:21:13;2.80;;;1.37;;
9958;SDS011;5019;48.012;7.812;2022-11-15T00:23:40;1.83;;;1.50;;
9958;SDS011;5019;48.012;7.812;2022-11-15T00:26:06;2.33;;;1.40;;
9958;SDS011;5019;48.012;7.812;2022-11-15T00:28:32;1.47;;;1.37;;
9958;SDS011;5019;48.012;7.812;2022-11-15T00:31:02;1.40;;;1.30;;
9958;SDS011;5019;48.012;7.812;2022-11-15T00:33:28;1.53;;;1.43;;
9958;SDS011;5019;48.012;7.812;2022-11-15T00:35:59;1.43;;;1.33;;
9958;SDS011;5019;48.012;7.812;2022-11-15T00:38:25;6.43;;;3.67;;
9958;SDS011;5019;48.012;7.812;2022-11-15T00:40:51;6.93;;;2.70;;
9958;SDS011;5019;48.012;7.812;2022-11-15T00:43:17;6.10;;;2.37;;
9958;SDS011;5019;48.012;7.812;2022-11-15T00:45:43;3.17;;;1.67;;
9958;SDS011;5019;48.012;7.812;2022-11-15T00:48:09;4.40;;;1.97;;
9958;SDS011;5019;48.012;7.812;2022-11-15T00:50:35;1.70;;;1.50;;
9958;SDS011;5019;48.012;7.812;2022-11-15T00:53:01;1.40;;;1.30;;
9958;SDS011;5019;48.012;7.812;2022-11-15T00:55:27;1.70;;;1.60;;
9958;SDS011;5019;48.012;7.812;2022-11-15T00:57:53;1.40;;;1.30;;
9958;SDS011;5019;48.012;7.812;2022-11-15T01:00:19;1.53;;;1.40;;
9958;SDS011;5019;48.012;7.812;2022-11-15T01:02:45;2.63;;;1.70;;
9958;SDS011;5019;48.012;7.812;2022-11-15T01:05:11;1.90;;;1.80;;
9958;SDS011;5019;48.012;7.812;2022-11-15T01:07:37;1.63;;;1.53;;
9958;SDS011;5019;48.012;7.812;2022-11-15T01:10:04;1.93;;;1.20;;
9958;SDS011;5019;48.012;7.812;2022-11-15T01:12:30;1.80;;;1.40;;
9958;SDS011;5019;48.012;7.812;2022-11-15T01:14:56;1.30;;;1.07;;
9958;SDS011;5019;48.012;7.812;2022-11-15T01:17:23;2.43;;;1.60;;
9958;SDS011;5019;48.012;7.812;2022-11-15T01:19:49;1.23;;;1.13;;
9958;SDS011;5019;48.012;7.812;2022-11-15T01:22:15;1.53;;;1.40;;
9958;SDS011;5019;48.012;7.812;2022-11-15T01:24:41;2.40;;;1.70;;
9958;SDS011;5019;48.012;7.812;2022-11-15T01:27:07;1.43;;;1.20;;
9958;SDS011;5019;48.012;7.812;2022-11-15T01:29:33;3.20;;;1.70;;
9958;SDS011;5019;48.012;7.812;2022-11-15T01:31:59;1.23;;;1.13;;
9958;SDS011;5019;48.012;7.812;2022-11-15T01:34:25;1.37;;;1.27;;
9958;SDS011;5019;48.012;7.812;2022-11-15T01:36:51;1.50;;;1.40;;
9958;SDS011;5019;48.012;7.812;2022-11-15T01:39:17;3.67;;;2.30;;
9958;SDS011;5019;48.012;7.812;2022-11-15T01:41:43;3.80;;;1.87;;
9958;SDS011;5019;48.012;7.812;2022-11-15T01:46:54;1.83;;;1.47;;
9958;SDS011;5019;48.012;7.812;2022-11-15T01:49:21;1.90;;;1.43;;
9958;SDS011;5019;48.012;7.812;2022-11-15T01:51:47;6.43;;;2.13;;
9958;SDS011;5019;48.012;7.812;2022-11-15T01:54:14;1.23;;;1.00;;
9958;SDS011;5019;48.012;7.812;2022-11-15T01:56:42;1.37;;;1.27;;
9958;SDS011;5019;48.012;7.812;2022-11-15T01:59:10;1.53;;;1.17;;
9958;SDS011;5019;48.012;7.812;2022-11-15T02:01:36;2.33;;;1.00;;
9958;SDS011;5019;48.012;7.812;2022-11-15T02:04:13;1.53;;;1.27;;
9958;SDS011;5019;48.012;7.812;2022-11-15T02:06:39;1.00;;;0.90;;
9958;SDS011;5019;48.012;7.812;2022-11-15T02:09:06;1.50;;;1.40;;
9958;SDS011;5019;48.012;7.812;2022-11-15T02:11:32;1.60;;;1.43;;
9958;SDS011;5019;48.012;7.812;2022-11-15T02:13:58;1.90;;;1.40;;
9958;SDS011;5019;48.012;7.812;2022-11-15T02:18:55;1.37;;;1.20;;
9958;SDS011;5019;48.012;7.812;2022-11-15T02:21:46;1.80;;;1.27;;
9958;SDS011;5019;48.012;7.812;2022-11-15T02:29:36;2.73;;;2.17;;
9958;SDS011;5019;48.012;7.812;2022-11-15T02:32:26;2.70;;;1.93;;
9958;SDS011;5019;48.012;7.812;2022-11-15T02:35:00;1.77;;;1.67;;
9958;SDS011;5019;48.012;7.812;2022-11-15T02:37:34;5.03;;;2.07;;
9958;SDS011;5019;48.012;7.812;2022-11-15T02:42:39;2.03;;;1.57;;
9958;SDS011;5019;48.012;7.812;2022-11-15T02:45:35;2.63;;;1.90;;
9958;SDS011;5019;48.012;7.812;2022-11-15T02:48:01;3.83;;;1.20;;
9958;SDS011;5019;48.012;7.812;2022-11-15T02:50:29;2.50;;;1.70;;
9958;SDS011;5019;48.012;7.812;2022-11-15T02:52:57;1.30;;;1.20;;
9958;SDS011;5019;48.012;7.812;2022-11-15T03:00:24;2.07;;;1.40;;
9958;SDS011;5019;48.012;7.812;2022-11-15T03:10:22;2.27;;;2.13;;
9958;SDS011;5019;48.012;7.812;2022-11-15T03:12:55;2.33;;;1.50;;
9958;SDS011;5019;48.012;7.812;2022-11-15T03:15:24;2.13;;;2.00;;
9958;SDS011;5019;48.012;7.812;2022-11-15T03:17:55;1.67;;;1.57;;
9958;SDS011;5019;48.012;7.812;2022-11-15T03:20:23;2.20;;;1.40;;
9958;SDS011;5019;48.012;7.812;2022-11-15T03:22:51;2.13;;;1.73;;
9958;SDS011;5019;48.012;7.812;2022-11-15T03:25:22;4.23;;;1.70;;
9958;SDS011;5019;48.012;7.812;2022-11-15T03:27:53;1.63;;;1.20;;
9958;SDS011;5019;48.012;7.812;2022-11-15T03:30:20;1.50;;;1.40;;
9958;SDS011;5019;48.012;7.812;2022-11-15T03:32:48;2.10;;;1.97;;
9958;SDS011;5019;48.012;7.812;2022-11-15T03:35:17;2.23;;;1.70;;
9958;SDS011;5019;48.012;7.812;2022-11-15T03:37:46;2.00;;;1.80;;
9958;SDS011;5019;48.012;7.812;2022-11-15T03:40:15;2.03;;;1.50;;
9958;SDS011;5019;48.012;7.812;2022-11-15T03:42:43;1.50;;;1.40;;
9958;SDS011;5019;48.012;7.812;2022-11-15T03:50:11;1.97;;;1.60;;
9958;SDS011;5019;48.012;7.812;2022-11-15T03:52:38;3.43;;;1.40;;
9958;SDS011;5019;48.012;7.812;2022-11-15T03:55:06;2.87;;;2.27;;
9958;SDS011;5019;48.012;7.812;2022-11-15T03:57:32;5.40;;;1.50;;
9958;SDS011;5019;48.012;7.812;2022-11-15T03:59:58;3.73;;;1.60;;
9958;SDS011;5019;48.012;7.812;2022-11-15T04:02:24;1.57;;;1.40;;
9958;SDS011;5019;48.012;7.812;2022-11-15T04:04:51;1.90;;;1.70;;
9958;SDS011;5019;48.012;7.812;2022-11-15T04:07:17;4.63;;;1.87;;
9958;SDS011;5019;48.012;7.812;2022-11-15T04:09:43;2.27;;;1.63;;
9958;SDS011;5019;48.012;7.812;2022-11-15T04:12:27;2.37;;;1.87;;
9958;SDS011;5019;48.012;7.812;2022-11-15T04:15:29;2.37;;;2.00;;
9958;SDS011;5019;48.012;7.812;2022-11-15T04:20:21;1.90;;;1.77;;
9958;SDS011;5019;48.012;7.812;2022-11-15T04:23:09;3.80;;;1.83;;
9958;SDS011;5019;48.012;7.812;2022-11-15T04:25:55;2.90;;;2.13;;
9958;SDS011;5019;48.012;7.812;2022-11-15T04:28:21;2.30;;;1.63;;
9958;SDS011;5019;48.012;7.812;2022-11-15T04:30:48;1.57;;;1.47;;
9958;SDS011;5019;48.012;7.812;2022-11-15T04:33:14;1.97;;;1.83;;
9958;SDS011;5019;48.012;7.812;2022-11-15T04:35:40;4.20;;;2.13;;
9958;SDS011;5019;48.012;7.812;2022-11-15T04:38:07;2.20;;;1.63;;
9958;SDS011;5019;48.012;7.812;2022-11-15T04:40:34;2.50;;;1.77;;
9958;SDS011;5019;48.012;7.812;2022-11-15T04:43:00;2.17;;;1.90;;
9958;SDS011;5019;48.012;7.812;2022-11-15T04:45:26;2.17;;;1.97;;
9958;SDS011;5019;48.012;7.812;2022-11-15T04:47:52;3.40;;;1.70;;
9958;SDS011;5019;48.012;7.812;2022-11-15T04:50:18;3.60;;;2.57;;
9958;SDS011;5019;48.012;7.812;2022-11-15T04:52:49;1.97;;;1.77;;
9958;SDS011;5019;48.012;7.812;2022-11-15T04:55:16;2.03;;;1.80;;
9958;SDS011;5019;48.012;7.812;2022-11-15T04:57:42;2.00;;;1.80;;
9958;SDS011;5019;48.012;7.812;2022-11-15T05:00:09;2.10;;;1.90;;
9958;SDS011;5019;48.012;7.812;2022-11-15T05:02:36;2.93;;;2.00;;
9958;SDS011;5019;48.012;7.812;2022-11-15T05:05:20;2.80;;;1.70;;
9958;SDS011;5019;48.012;7.812;2022-11-15T05:07:46;1.17;;;1.10;;
9958;SDS011;5019;48.012;7.812;2022-11-15T05:10:12;2.53;;;2.13;;
9958;SDS011;5019;48.012;7.812;2022-11-15T05:12:38;3.27;;;1.83;;
9958;SDS011;5019;48.012;7.812;2022-11-15T05:15:04;5.23;;;2.07;;
9958;SDS011;5019;48.012;7.812;2022-11-15T05:17:30;1.60;;;1.50;;
9958;SDS011;5019;48.012;7.812;2022-11-15T05:19:57;1.50;;;1.40;;
9958;SDS011;5019;48.012;7.812;2022-11-15T05:22:23;1.90;;;1.80;;
9958;SDS011;5019;48.012;7.812;2022-11-15T05:24:49;1.97;;;1.87;;
9958;SDS011;5019;48.012;7.812;2022-11-15T05:27:15;2.60;;;1.43;;
9958;SDS011;5019;48.012;7.812;2022-11-15T05:29:41;1.73;;;1.40;;
9958;SDS011;5019;48.012;7.812;2022-11-15T05:32:07;1.23;;;1.10;;
9958;SDS011;5019;48.012;7.812;2022-11-15T05:34:34;1.57;;;1.47;;
9958;SDS011;5019;48.012;7.812;2022-11-15T05:37:00;3.00;;;1.47;;
9958;SDS011;5019;48.012;7.812;2022-11-15T05:39:27;2.20;;;1.50;;
9958;SDS011;5019;48.012;7.812;2022-11-15T05:41:54;2.03;;;1.60;;
9958;SDS011;5019;48.012;7.812;2022-11-15T05:44:22;2.43;;;2.00;;
9958;SDS011;5019;48.012;7.812;2022-11-15T05:46:48;2.20;;;1.93;;
9958;SDS011;5019;48.012;7.812;2022-11-15T05:49:15;1.30;;;1.23;;
9958;SDS011;5019;48.012;7.812;2022-11-15T05:51:43;2.60;;;1.70;;
9958;SDS011;5019;48.012;7.812;2022-11-15T05:54:10;2.43;;;2.03;;
9958;SDS011;5019;48.012;7.812;2022-11-15T05:56:36;2.00;;;1.63;;
9958;SDS011;5019;48.012;7.812;2022-11-15T05:59:02;1.97;;;1.57;;
9958;SDS011;5019;48.012;7.812;2022-11-15T06:01:28;4.13;;;2.33;;
9958;SDS011;5019;48.012;7.812;2022-11-15T06:03:55;4.80;;;1.77;;
9958;SDS011;5019;48.012;7.812;2022-11-15T06:06:21;7.47;;;1.57;;
9958;SDS011;5019;48.012;7.812;2022-11-15T06:08:47;4.30;;;1.83;;
9958;SDS011;5019;48.012;7.812;2022-11-15T06:13:41;2.70;;;2.30;;
9958;SDS011;5019;48.012;7.812;2022-11-15T06:16:07;2.07;;;1.87;;
9958;SDS011;5019;48.012;7.812;2022-11-15T06:18:34;4.33;;;2.40;;
9958;SDS011;5019;48.012;7.812;2022-11-15T06:21:00;4.70;;;1.63;;
9958;SDS011;5019;48.012;7.812;2022-11-15T06:23:26;2.20;;;1.47;;
9958;SDS011;5019;48.012;7.812;2022-11-15T06:25:52;2.50;;;1.70;;
9958;SDS011;5019;48.012;7.812;2022-11-15T06:28:18;1.70;;;1.60;;
9958;SDS011;5019;48.012;7.812;2022-11-15T06:30:45;1.87;;;1.77;;
9958;SDS011;5019;48.012;7.812;2022-11-15T06:33:11;2.77;;;1.90;;
9958;SDS011;5019;48.012;7.812;2022-11-15T06:35:37;1.87;;;1.67;;
9958;SDS011;5019;48.012;7.812;2022-11-15T06:38:08;4.13;;;2.07;;
9958;SDS011;5019;48.012;7.812;2022-11-15T06:40:37;1.50;;;1.40;;
9958;SDS011;5019;48.012;7.812;2022-11-15T06:43:04;4.90;;;1.53;;
9958;SDS011;5019;48.012;7.812;2022-11-15T06:45:30;1.73;;;1.63;;
9958;SDS011;5019;48.012;7.812;2022-11-15T06:47:56;1.20;;;1.10;;
9958;SDS011;5019;48.012;7.812;2022-11-15T06:50:22;2.17;;;2.00;;
9958;SDS011;5019;48.012;7.812;2022-11-15T06:52:48;4.30;;;1.67;;
9958;SDS011;5019;48.012;7.812;2022-11-15T06:55:14;2.03;;;1.60;;
9958;SDS011;5019;48.012;7.812;2022-11-15T06:57:47;1.43;;;1.33;;
9958;SDS011;5019;48.012;7.812;2022-11-15T07:00:13;4.43;;;1.90;;
9958;SDS011;5019;48.012;7.812;2022-11-15T07:02:39;4.70;;;2.07;;
9958;SDS011;5019;48.012;7.812;2022-11-15T07:05:06;2.10;;;1.83;;
9958;SDS011;5019;48.012;7.812;2022-11-15T07:07:32;2.23;;;1.80;;
9958;SDS011;5019;48.012;7.812;2022-11-15T07:09:58;2.77;;;2.07;;
9958;SDS011;5019;48.012;7.812;2022-11-15T07:12:24;1.40;;;1.30;;
9958;SDS011;5019;48.012;7.812;2022-11-15T07:14:50;2.70;;;1.97;;
9958;SDS011;5019;48.012;7.812;2022-11-15T07:17:16;5.40;;;1.60;;
9958;SDS011;5019;48.012;7.812;2022-11-15T07:19:42;2.13;;;1.60;;
9958;SDS011;5019;48.012;7.812;2022-11-15T07:22:08;1.53;;;1.30;;
9958;SDS011;5019;48.012;7.812;2022-11-15T07:24:34;2.40;;;1.83;;
9958;SDS011;5019;48.012;7.812;2022-11-15T07:27:00;3.50;;;2.10;;
9958;SDS011;5019;48.012;7.812;2022-11-15T07:29:26;2.47;;;1.80;;
9958;SDS011;5019;48.012;7.812;2022-11-15T07:31:52;1.90;;;1.80;;
9958;SDS011;5019;48.012;7.812;2022-11-15T07:34:18;2.23;;;1.90;;
9958;SDS011;5019;48.012;7.812;2022-11-15T07:36:44;2.30;;;2.10;;
9958;SDS011;5019;48.012;7.812;2022-11-15T07:39:10;3.87;;;3.37;;
9958;SDS011;5019;48.012;7.812;2022-11-15T07:41:37;4.63;;;3.00;;
9958;SDS011;5019;48.012;7.812;2022-11-15T07:44:03;1.90;;;1.80;;
9958;SDS011;5019;48.012;7.812;2022-11-15T07:46:29;2.70;;;2.50;;
9958;SDS011;5019;48.012;7.812;2022-11-15T07:48:56;3.00;;;2.60;;
9958;SDS011;5019;48.012;7.812;2022-11-15T07:51:22;1.90;;;1.70;;
9958;SDS011;5019;48.012;7.812;2022-11-15T07:53:48;2.50;;;2.00;;
9958;SDS011;5019;48.012;7.812;2022-11-15T07:56:14;1.70;;;1.60;;
9958;SDS011;5019;48.012;7.812;2022-11-15T07:58:40;2.60;;;1.53;;
9958;SDS011;5019;48.012;7.812;2022-11-15T08:01:07;6.07;;;3.60;;
9958;SDS011;5019;48.012;7.812;2022-11-15T08:03:34;3.80;;;3.00;;
9958;SDS011;5019;48.012;7.812;2022-11-15T08:06:00;4.17;;;2.50;;
9958;SDS011;5019;48.012;7.812;2022-11-15T08:08:26;5.13;;;2.90;;
9958;SDS011;5019;48.012;7.812;2022-11-15T08:10:52;2.30;;;2.10;;
9958;SDS011;5019;48.012;7.812;2022-11-15T08:13:18;2.37;;;1.77;;
9958;SDS011;5019;48.012;7.812;2022-11-15T08:15:44;1.90;;;1.70;;
9958;SDS011;5019;48.012;7.812;2022-11-15T08:18:11;2.40;;;2.23;;
9958;SDS011;5019;48.012;7.812;2022-11-15T08:20:37;4.03;;;2.53;;
9958;SDS011;5019;48.012;7.812;2022-11-15T08:23:04;2.90;;;1.77;;
9958;SDS011;5019;48.012;7.812;2022-11-15T08:25:31;3.90;;;2.83;;
9958;SDS011;5019;48.012;7.812;2022-11-15T08:27:58;5.83;;;2.57;;
9958;SDS011;5019;48.012;7.812;2022-11-15T08:30:24;3.30;;;2.13;;
9958;SDS011;5019;48.012;7.812;2022-11-15T08:32:51;5.23;;;2.83;;
9958;SDS011;5019;48.012;7.812;2022-11-15T08:35:17;2.80;;;2.23;;
9958;SDS011;5019;48.012;7.812;2022-11-15T08:37:44;2.80;;;2.33;;
9958;SDS011;5019;48.012;7.812;2022-11-15T08:40:10;3.30;;;2.67;;
9958;SDS011;5019;48.012;7.812;2022-11-15T08:42:36;5.03;;;2.60;;
9958;SDS011;5019;48.012;7.812;2022-11-15T08:45:02;2.70;;;1.60;;
9958;SDS011;5019;48.012;7.812;2022-11-15T08:47:28;1.60;;;1.50;;
9958;SDS011;5019;48.012;7.812;2022-11-15T08:49:54;2.80;;;2.00;;
9958;SDS011;5019;48.012;7.812;2022-11-15T08:52:20;2.67;;;2.30;;
9958;SDS011;5019;48.012;7.812;2022-11-15T08:54:47;2.60;;;2.00;;
9958;SDS011;5019;48.012;7.812;2022-11-15T08:57:13;2.07;;;1.90;;
9958;SDS011;5019;48.012;7.812;2022-11-15T08:59:39;2.53;;;1.67;;
9958;SDS011;5019;48.012;7.812;2022-11-15T09:02:05;2.20;;;1.60;;
9958;SDS011;5019;48.012;7.812;2022-11-15T09:04:31;3.77;;;2.67;;
9958;SDS011;5019;48.012;7.812;2022-11-15T09:06:57;4.03;;;2.00;;
9958;SDS011;5019;48.012;7.812;2022-11-15T09:09:23;2.20;;;1.87;;
9958;SDS011;5019;48.012;7.812;2022-11-15T09:11:49;1.93;;;1.83;;
9958;SDS011;5019;48.012;7.812;2022-11-15T09:14:15;3.10;;;1.83;;
9958;SDS011;5019;48.012;7.812;2022-11-15T09:16:41;2.00;;;1.90;;
9958;SDS011;5019;48.012;7.812;2022-11-15T09:19:07;3.93;;;2.27;;
9958;SDS011;5019;48.012;7.812;2022-11-15T09:21:33;2.30;;;2.10;;
9958;SDS011;5019;48.012;7.812;2022-11-15T09:23:59;3.40;;;2.30;;
9958;SDS011;5019;48.012;7.812;2022-11-15T09:26:25;2.83;;;2.10;;
9958;SDS011;5019;48.012;7.812;2022-11-15T09:28:51;3.60;;;2.40;;
9958;SDS011;5019;48.012;7.812;2022-11-15T09:31:18;3.17;;;2.20;;
9958;SDS011;5019;48.012;7.812;2022-11-15T09:33:45;3.50;;;1.97;;
9958;SDS011;5019;48.012;7.812;2022-11-15T09:36:11;3.97;;;2.60;;
9958;SDS011;5019;48.012;7.812;2022-11-15T09:38:37;2.30;;;2.20;;
9958;SDS011;5019;48.012;7.812;2022-11-15T09:41:17;2.97;;;2.60;;
9958;SDS011;5019;48.012;7.812;2022-11-15T09:49:17;5.50;;;2.40;;
9958;SDS011;5019;48.012;7.812;2022-11-15T09:51:45;3.77;;;2.70;;
9958;SDS011;5019;48.012;7.812;2022-11-15T09:54:16;2.70;;;2.30;;
9958;SDS011;5019;48.012;7.812;2022-11-15T09:56:43;4.27;;;2.90;;
9958;SDS011;5019;48.012;7.812;2022-11-15T10:04:20;3.67;;;3.33;;
9958;SDS011;5019;48.012;7.812;2022-11-15T10:06:49;3.23;;;2.93;;
9958;SDS011;5019;48.012;7.812;2022-11-15T10:09:19;4.80;;;3.50;;
9958;SDS011;5019;48.012;7.812;2022-11-15T10:11:46;4.90;;;3.03;;
9958;SDS011;5019;48.012;7.812;2022-11-15T10:14:14;5.50;;;3.30;;
9958;SDS011;5019;48.012;7.812;2022-11-15T10:16:51;4.27;;;2.60;;
9958;SDS011;5019;48.012;7.812;2022-11-15T10:24:42;3.27;;;2.73;;
9958;SDS011;5019;48.012;7.812;2022-11-15T10:27:10;5.23;;;3.13;;
9958;SDS011;5019;48.012;7.812;2022-11-15T10:29:40;4.80;;;3.60;;
9958;SDS011;5019;48.012;7.812;2022-11-15T10:32:08;3.73;;;3.17;;
9958;SDS011;5019;48.012;7.812;2022-11-15T10:34:35;3.23;;;2.63;;
9958;SDS011;5019;48.012;7.812;2022-11-15T10:37:01;5.80;;;2.73;;
9958;SDS011;5019;48.012;7.812;2022-11-15T10:39:28;3.83;;;2.90;;
9958;SDS011;5019;48.012;7.812;2022-11-15T10:41:54;3.90;;;3.60;;
9958;SDS011;5019;48.012;7.812;2022-11-15T10:44:22;3.27;;;2.57;;
9958;SDS011;5019;48.012;7.812;2022-11-15T10:47:33;3.63;;;3.10;;
9958;SDS011;5019;48.012;7.812;2022-11-15T10:49:34;5.07;;;3.23;;
9958;SDS011;5019;48.012;7.812;2022-11-15T10:52:17;5.60;;;3.00;;
9958;SDS011;5019;48.012;7.812;2022-11-15T10:57:22;3.67;;;3.03;;
9958;SDS011;5019;48.012;7.812;2022-11-15T10:59:49;5.07;;;2.90;;
9958;SDS011;5019;48.012;7.812;2022-11-15T11:04:51;2.50;;;2.33;;
9958;SDS011;5019;48.012;7.812;2022-11-15T11:07:22;2.50;;;2.20;;
9958;SDS011;5019;48.012;7.812;2022-11-15T11:09:49;3.97;;;3.37;;
9958;SDS011;5019;48.012;7.812;2022-11-15T11:12:26;9.70;;;5.80;;
9958;SDS011;5019;48.012;7.812;2022-11-15T11:14:53;6.60;;;3.17;;
9958;SDS011;5019;48.012;7.812;2022-11-15T11:20:07;5.40;;;3.10;;
9958;SDS011;5019;48.012;7.812;2022-11-15T11:22:46;4.63;;;3.07;;
9958;SDS011;5019;48.012;7.812;2022-11-15T11:25:27;6.27;;;2.80;;
9958;SDS011;5019;48.012;7.812;2022-11-15T11:27:59;10.03;;;2.90;;
9958;SDS011;5019;48.012;7.812;2022-11-15T11:32:57;3.90;;;2.93;;
9958;SDS011;5019;48.012;7.812;2022-11-15T11:40:51;2.40;;;2.20;;
9958;SDS011;5019;48.012;7.812;2022-11-15T11:43:26;2.90;;;2.40;;
9958;SDS011;5019;48.012;7.812;2022-11-15T11:46:05;3.23;;;2.83;;
9958;SDS011;5019;48.012;7.812;2022-11-15T11:51:10;3.43;;;2.67;;
9958;SDS011;5019;48.012;7.812;2022-11-15T11:53:39;4.97;;;2.30;;
9958;SDS011;5019;48.012;7.812;2022-11-15T11:56:14;4.80;;;2.00;;
9958;SDS011;5019;48.012;7.812;2022-11-15T11:58:43;5.03;;;2.37;;
9958;SDS011;5019;48.012;7.812;2022-11-15T12:01:25;3.20;;;2.47;;
9958;SDS011;5019;48.012;7.812;2022-11-15T12:06:23;3.90;;;2.63;;
9958;SDS011;5019;48.012;7.812;2022-11-15T12:08:53;2.57;;;2.37;;
9958;SDS011;5019;48.012;7.812;2022-11-15T12:11:29;3.40;;;2.43;;
9958;SDS011;5019;48.012;7.812;2022-11-15T12:13:59;3.23;;;2.60;;
9958;SDS011;5019;48.012;7.812;2022-11-15T12:16:27;5.03;;;3.40;;
9958;SDS011;5019;48.012;7.812;2022-11-15T12:18:54;3.70;;;2.63;;
9958;SDS011;5019;48.012;7.812;2022-11-15T12:23:50;8.40;;;4.40;;
9958;SDS011;5019;48.012;7.812;2022-11-15T12:26:17;4.13;;;3.00;;
9958;SDS011;5019;48.012;7.812;2022-11-15T12:28:52;3.60;;;2.43;;
9958;SDS011;5019;48.012;7.812;2022-11-15T12:33:49;3.77;;;2.40;;
9958;SDS011;5019;48.012;7.812;2022-11-15T12:43:40;4.37;;;3.17;;
9958;SDS011;5019;48.012;7.812;2022-11-15T12:46:10;3.27;;;2.87;;
9958;SDS011;5019;48.012;7.812;2022-11-15T12:51:02;3.40;;;2.63;;
9958;SDS011;5019;48.012;7.812;2022-11-15T12:53:30;4.30;;;3.67;;
9958;SDS011;5019;48.012;7.812;2022-11-15T13:01:07;10.10;;;4.47;;
9958;SDS011;5019;48.012;7.812;2022-11-15T13:03:33;5.57;;;4.07;;
9958;SDS011;5019;48.012;7.812;2022-11-15T13:06:00;7.07;;;3.30;;
9958;SDS011;5019;48.012;7.812;2022-11-15T13:08:37;6.50;;;3.90;;
9958;SDS011;5019;48.012;7.812;2022-11-15T13:13:47;6.80;;;3.40;;
9958;SDS011;5019;48.012;7.812;2022-11-15T13:16:17;6.47;;;4.07;;
9958;SDS011;5019;48.012;7.812;2022-11-15T13:18:52;4.60;;;3.40;;
9958;SDS011;5019;48.012;7.812;2022-11-15T13:21:20;3.40;;;3.10;;
9958;SDS011;5019;48.012;7.812;2022-11-15T13:24:10;4.47;;;3.87;;
9958;SDS011;5019;48.012;7.812;2022-11-15T13:26:37;4.00;;;3.13;;
9958;SDS011;5019;48.012;7.812;2022-11-15T13:29:04;7.77;;;3.30;;
9958;SDS011;5019;48.012;7.812;2022-11-15T13:33:58;5.83;;;3.60;;
9958;SDS011;5019;48.012;7.812;2022-11-15T13:36:26;4.70;;;3.57;;
9958;SDS011;5019;48.012;7.812;2022-11-15T13:39:23;5.27;;;4.23;;
9958;SDS011;5019;48.012;7.812;2022-11-15T13:41:49;4.50;;;2.87;;
9958;SDS011;5019;48.012;7.812;2022-11-15T13:44:28;6.03;;;3.87;;
9958;SDS011;5019;48.012;7.812;2022-11-15T13:47:02;5.40;;;4.60;;
9958;SDS011;5019;48.012;7.812;2022-11-15T13:49:31;6.47;;;4.03;;
9958;SDS011;5019;48.012;7.812;2022-11-15T13:51:58;10.03;;;5.47;;
9958;SDS011;5019;48.012;7.812;2022-11-15T13:56:55;5.83;;;4.67;;
9958;SDS011;5019;48.012;7.812;2022-11-15T13:59:24;6.50;;;4.10;;
9958;SDS011;5019;48.012;7.812;2022-11-15T14:01:51;5.57;;;3.80;;
9958;SDS011;5019;48.012;7.812;2022-11-15T14:04:18;4.87;;;3.97;;
9958;SDS011;5019;48.012;7.812;2022-11-15T14:06:45;7.10;;;3.97;;
9958;SDS011;5019;48.012;7.812;2022-11-15T14:09:29;7.47;;;4.50;;
9958;SDS011;5019;48.012;7.812;2022-11-15T14:11:57;6.83;;;4.33;;
9958;SDS011;5019;48.012;7.812;2022-11-15T14:14:25;5.87;;;3.87;;
9958;SDS011;5019;48.012;7.812;2022-11-15T14:16:52;4.53;;;4.13;;
9958;SDS011;5019;48.012;7.812;2022-11-15T14:24:31;8.23;;;5.10;;
9958;SDS011;5019;48.012;7.812;2022-11-15T14:26:57;13.77;;;7.50;;
9958;SDS011;5019;48.012;7.812;2022-11-15T14:29:23;12.33;;;6.23;;
9958;SDS011;5019;48.012;7.812;2022-11-15T14:31:49;8.87;;;4.70;;
9958;SDS011;5019;48.012;7.812;2022-11-15T14:34:16;4.67;;;3.70;;
9958;SDS011;5019;48.012;7.812;2022-11-15T14:36:42;6.43;;;5.03;;
9958;SDS011;5019;48.012;7.812;2022-11-15T14:39:08;11.03;;;5.50;;
9958;SDS011;5019;48.012;7.812;2022-11-15T14:41:35;17.50;;;9.83;;
9958;SDS011;5019;48.012;7.812;2022-11-15T14:44:05;14.13;;;7.70;;
9958;SDS011;5019;48.012;7.812;2022-11-15T14:46:31;7.07;;;5.20;;
9958;SDS011;5019;48.012;7.812;2022-11-15T14:48:57;9.13;;;4.40;;
9958;SDS011;5019;48.012;7.812;2022-11-15T14:51:23;4.30;;;3.30;;
9958;SDS011;5019;48.012;7.812;2022-11-15T14:53:50;7.83;;;3.43;;
9958;SDS011;5019;48.012;7.812;2022-11-15T14:56:17;4.30;;;3.07;;
9958;SDS011;5019;48.012;7.812;2022-11-15T14:58:43;7.57;;;4.27;;
9958;SDS011;5019;48.012;7.812;2022-11-15T15:01:27;4.67;;;3.50;;
9958;SDS011;5019;48.012;7.812;2022-11-15T15:03:53;5.40;;;3.80;;
9958;SDS011;5019;48.012;7.812;2022-11-15T15:06:22;4.50;;;3.10;;
9958;SDS011;5019;48.012;7.812;2022-11-15T15:08:48;5.70;;;3.93;;
9958;SDS011;5019;48.012;7.812;2022-11-15T15:11:17;7.33;;;4.00;;
9958;SDS011;5019;48.012;7.812;2022-11-15T15:13:44;5.50;;;3.53;;
9958;SDS011;5019;48.012;7.812;2022-11-15T15:16:10;4.50;;;3.80;;
9958;SDS011;5019;48.012;7.812;2022-11-15T15:18:36;6.90;;;3.03;;
9958;SDS011;5019;48.012;7.812;2022-11-15T15:21:02;3.20;;;2.80;;
9958;SDS011;5019;48.012;7.812;2022-11-15T15:23:32;2.90;;;2.60;;
9958;SDS011;5019;48.012;7.812;2022-11-15T15:26:00;3.23;;;2.83;;
9958;SDS011;5019;48.012;7.812;2022-11-15T15:28:26;4.33;;;3.83;;
9958;SDS011;5019;48.012;7.812;2022-11-15T15:30:52;5.73;;;3.30;;
9958;SDS011;5019;48.012;7.812;2022-11-15T15:33:18;4.80;;;3.90;;
9958;SDS011;5019;48.012;7.812;2022-11-15T15:35:44;6.87;;;3.50;;
9958;SDS011;5019;48.012;7.812;2022-11-15T15:38:11;3.23;;;2.90;;
9958;SDS011;5019;48.012;7.812;2022-11-15T15:40:37;6.23;;;3.30;;
9958;SDS011;5019;48.012;7.812;2022-11-15T15:43:03;6.83;;;3.50;;
9958;SDS011;5019;48.012;7.812;2022-11-15T15:45:36;3.47;;;3.17;;
9958;SDS011;5019;48.012;7.812;2022-11-15T15:48:04;5.83;;;3.53;;
9958;SDS011;5019;48.012;7.812;2022-11-15T15:50:33;3.93;;;3.13;;
9958;SDS011;5019;48.012;7.812;2022-11-15T15:53:01;4.53;;;3.37;;
9958;SDS011;5019;48.012;7.812;2022-11-15T15:55:27;5.70;;;4.10;;
9958;SDS011;5019;48.012;7.812;2022-11-15T15:57:53;5.47;;;4.17;;
9958;SDS011;5019;48.012;7.812;2022-11-15T16:00:20;5.47;;;3.73;;
9958;SDS011;5019;48.012;7.812;2022-11-15T16:02:47;11.33;;;4.60;;
9958;SDS011;5019;48.012;7.812;2022-11-15T16:05:14;3.77;;;3.37;;
9958;SDS011;5019;48.012;7.812;2022-11-15T16:07:40;5.73;;;3.63;;
9958;SDS011;5019;48.012;7.812;2022-11-15T16:10:24;2.73;;;2.50;;
9958;SDS011;5019;48.012;7.812;2022-11-15T16:12:50;3.37;;;2.40;;
9958;SDS011;5019;48.012;7.812;2022-11-15T16:15:17;4.70;;;3.63;;
9958;SDS011;5019;48.012;7.812;2022-11-15T16:17:45;4.67;;;2.83;;
9958;SDS011;5019;48.012;7.812;2022-11-15T16:20:19;3.57;;;2.67;;
9958;SDS011;5019;48.012;7.812;2022-11-15T16:22:47;3.07;;;2.70;;
9958;SDS011;5019;48.012;7.812;2022-11-15T16:25:13;3.67;;;2.70;;
9958;SDS011;5019;48.012;7.812;2022-11-15T16:27:39;3.50;;;2.87;;
9958;SDS011;5019;48.012;7.812;2022-11-15T16:30:14;3.33;;;2.63;;
9958;SDS011;5019;48.012;7.812;2022-11-15T16:32:40;2.57;;;2.37;;
9958;SDS011;5019;48.012;7.812;2022-11-15T16:35:07;4.40;;;3.20;;
9958;SDS011;5019;48.012;7.812;2022-11-15T16:37:33;8.10;;;2.80;;
9958;SDS011;5019;48.012;7.812;2022-11-15T16:39:59;6.50;;;3.67;;
9958;SDS011;5019;48.012;7.812;2022-11-15T16:42:25;10.33;;;3.50;;
9958;SDS011;5019;48.012;7.812;2022-11-15T16:44:51;4.43;;;3.03;;
9958;SDS011;5019;48.012;7.812;2022-11-15T16:47:17;3.47;;;3.10;;
9958;SDS011;5019;48.012;7.812;2022-11-15T16:49:44;9.90;;;3.17;;
9958;SDS011;5019;48.012;7.812;2022-11-15T16:52:10;3.40;;;2.93;;
9958;SDS011;5019;48.012;7.812;2022-11-15T16:54:36;3.03;;;2.73;;
9958;SDS011;5019;48.012;7.812;2022-11-15T16:57:02;4.10;;;3.63;;
9958;SDS011;5019;48.012;7.812;2022-11-15T16:59:28;5.90;;;3.73;;
9958;SDS011;5019;48.012;7.812;2022-11-15T17:01:56;3.90;;;3.47;;
9958;SDS011;5019;48.012;7.812;2022-11-15T17:04:22;3.50;;;3.07;;
9958;SDS011;5019;48.012;7.812;2022-11-15T17:06:48;6.53;;;3.37;;